ADDS METAR Data INFO
IDs: Format: Raw Decoded Include TAF

Data at: 0748 UTC 20 Feb 2018

KLFK 200653Z AUTO 16008KT 10SM OVC019 21/19 A2998 RMK AO2 SLP147 T02110194
KLFK 200553Z AUTO 16010KT 10SM OVC021 21/20 A2998 RMK AO2 RAE25 SLP148 P0000 60001 T02110200 10233 20206 402670183 51008
KLFK 200520Z AUTO 16010KT 10SM -RA SCT018 BKN026 OVC042 21/20 A2998 RMK AO2 P0000 T02110200
KLFK 200503Z AUTO 15009KT 9SM -RA FEW018 BKN037 OVC050 21/20 A2998 RMK AO2 P0000 T02060200
KLFK 200453Z AUTO 15010KT 9SM -RA FEW018 BKN029 OVC055 21/20 A2998 RMK AO2 SLP147 P0001 T02060200
KLFK 200428Z AUTO 15011KT 7SM -RA SCT011 BKN017 OVC024 21/20 A2997 RMK AO2 P0001 T02110200
KLFK 200353Z AUTO 15010G17KT 10SM -RA OVC013 21/20 A2998 RMK AO2 RAB38 SLP147 P0000 T02110200
KLFK 200253Z AUTO 14010KT 10SM BKN012 BKN019 OVC026 21/19 A2996 RMK AO2 RAE0159 SLP142 P0000 60000 T02110194 52001
KLFK 200220Z AUTO 15009KT 10SM BKN014 OVC021 21/19 A2996 RMK AO2 RAE0159 P0000 T02110194
KLFK 200153Z AUTO 15008KT 10SM -RA BKN019 OVC027 21/19 A2996 RMK AO2 RAB26 SLP141 P0000 T02110194
KLFK 200139Z AUTO 15012KT 10SM -RA SCT019 BKN026 OVC034 22/19 A2996 RMK AO2 RAB26 P0000 T02170189
KLFK 200114Z AUTO 15011G19KT 10SM SCT027 OVC045 23/18 A2995 RMK AO2 T02280178
KLFK 200104Z AUTO 16011KT 10SM BKN027 BKN044 OVC060 23/18 A2995 RMK AO2 T02280178
KLFK 200053Z AUTO 16012G16KT 10SM SCT028 BKN060 OVC090 23/17 A2996 RMK AO2 SLP141 T02280172
KLFK 192353Z AUTO 16012KT 10SM SCT060 BKN085 23/16 A2995 RMK AO2 PK WND 15028/2331 SLP140 T02330156 10267 20233 53006
KLFK 192253Z AUTO 16011G19KT 10SM FEW042 OVC065 24/16 A2994 RMK AO2 SLP135 T02440161
KLFK 192153Z AUTO 16013KT 10SM FEW070 25/16 A2993 RMK AO2 PK WND 15027/2055 SLP133 T02500156
KLFK 192053Z AUTO 15017G23KT 10SM SCT045 BKN065 26/16 A2994 RMK AO2 SLP133 T02610161 56019
KLFK 191953Z AUTO 17015G21KT 10SM SCT044 BKN060 26/16 A2995 RMK AO2 PK WND 14027/1854 SLP137 T02560161
KLFK 191853Z AUTO 16017G23KT 10SM FEW035 SCT046 SCT060 26/17 A2996 RMK AO2 PK WND 16026/1823 SLP143 T02560172
KLFK 191753Z AUTO 15017G23KT 10SM SCT029 SCT035 25/18 A2999 RMK AO2 SLP153 T02500183 10250 20183 58014
KLFK 191653Z AUTO 17014G23KT 10SM SCT021 BKN028 23/18 A3002 RMK AO2 SLP163 T02330178
KLFK 191621Z AUTO 16015G20KT 10SM BKN018 BKN024 BKN031 22/18 A3003 RMK AO2 T02220178
KLFK 191553Z AUTO 16012KT 10SM FEW016 BKN035 22/18 A3003 RMK AO2 SLP165 T02170183
KLFK 191532Z AUTO 16010KT 10SM SCT016 OVC034 21/18 A3004 RMK AO2 T02110183
KLFK 191453Z AUTO 15007KT 10SM BKN016 OVC035 20/18 A3003 RMK AO2 SLP167 T02000183 53012
KLFK 191417Z AUTO 14007KT 10SM BKN016 OVC032 19/18 A3003 RMK AO2 T01940178
KLFK 191353Z AUTO 14007KT 10SM OVC014 19/18 A3002 RMK AO2 SLP161 T01890178
KLFK 191345Z AUTO 14006KT 10SM OVC014 19/18 A3001 RMK AO2 T01890178
KLFK 191253Z AUTO 14007KT 10SM OVC029 18/17 A3000 RMK AO2 SLP156 T01830172
KLFK 191244Z AUTO 14008KT 10SM OVC029 18/17 A3000 RMK AO2 T01830172
KLFK 191215Z AUTO 14006KT 10SM SCT015 OVC030 18/17 A3000 RMK AO2 T01830167
KLFK 191153Z AUTO 15005KT 10SM BKN015 OVC032 18/17 A3000 RMK AO2 SLP155 T01830167 10194 20183 52000
KLFK 191150Z AUTO 15006KT 10SM BKN015 OVC032 18/17 A3000 RMK AO2
KLFK 191140Z AUTO 15007KT 10SM SCT017 OVC032 18/17 A3000 RMK AO2 T01830167
KLFK 191053Z AUTO 15006KT 10SM BKN016 BKN022 OVC029 18/17 A3000 RMK AO2 SLP155 T01830167
KLFK 190953Z AUTO 16008KT 10SM OVC017 18/16 A3000 RMK AO2 SLP155 T01830161
KLFK 190853Z AUTO 15013KT 10SM BKN018 BKN023 19/16 A2999 RMK AO2 SLP151 T01890161 55001
KLFK 190844Z AUTO 16010G19KT 10SM BKN021 18/17 A2999 RMK AO2 T01830167
KLFK 190753Z AUTO 15013G19KT 10SM FEW019 19/17 A2998 RMK AO2 SLP149 T01890167
KLFK 190750Z AUTO 15011KT 10SM SCT019 19/17 A2998 RMK AO2
KLFK 190653Z AUTO 15010KT 10SM BKN022 19/17 A2999 RMK AO2 SLP152 T01890172
KLFK 190553Z AUTO 17009KT 10SM BKN018 19/17 A3000 RMK AO2 SLP158 T01940172 10217 20194 402330117 58001
KLFK 190453Z AUTO 16010KT 10SM BKN018 19/17 A3001 RMK AO2 SLP160 T01940172
KLFK 190353Z AUTO 17013KT 10SM OVC016 20/18 A3002 RMK AO2 SLP163 T02000178
KLFK 190336Z AUTO 16012KT 10SM OVC016 20/18 A3001 RMK AO2 T02000178
KLFK 190310Z AUTO 17017G25KT 10SM BKN014 20/18 A3001 RMK AO2 T02000178
KLFK 190253Z AUTO 16011KT 10SM FEW016 20/18 A3001 RMK AO2 SLP159 T02000178 53001
KLFK 190153Z AUTO 16013KT 10SM CLR 20/17 A3000 RMK AO2 SLP156 T02000172
KLFK 190053Z AUTO 15010KT 10SM CLR 21/17 A2999 RMK AO2 SLP154 T02060172
KLFK 182353Z AUTO 16008KT 10SM CLR 22/18 A3000 RMK AO2 SLP158 T02170178 10233 20172 56011
KLFK 182253Z AUTO 16007KT 10SM CLR 23/18 A3001 RMK AO2 SLP159 T02280178
KLFK 182153Z AUTO 15013KT 10SM FEW032 23/18 A3002 RMK AO2 SLP162 T02330178
KLFK 182053Z AUTO 14009KT 10SM FEW016 SCT024 22/18 A3004 RMK AO2 SLP169 T02170178 58035
KLFK 182003Z AUTO 12006KT 10SM SCT014 OVC022 21/18 A3006 RMK AO2 T02060178
KLFK 181953Z AUTO 10005KT 10SM BKN014 OVC020 19/17 A3007 RMK AO2 SLP180 T01940172